createdAt,value
2022-07-25T00:00:27.438Z,4.80
2022-07-25T00:02:54.373Z,4.93
2022-07-25T00:05:21.660Z,4.80
2022-07-25T00:07:49.297Z,4.67
2022-07-25T00:10:16.867Z,4.77
2022-07-25T00:12:44.045Z,4.03
2022-07-25T00:15:11.755Z,7.00
2022-07-25T00:17:40.442Z,4.00
2022-07-25T00:20:08.931Z,4.27
2022-07-25T00:22:35.960Z,4.97
2022-07-25T00:25:03.039Z,4.53
2022-07-25T00:27:30.083Z,5.10
2022-07-25T00:29:57.031Z,3.67
2022-07-25T00:32:23.982Z,4.13
2022-07-25T00:34:50.914Z,3.73
2022-07-25T00:37:17.810Z,5.00
2022-07-25T00:39:44.786Z,5.03
2022-07-25T00:42:11.688Z,4.80
2022-07-25T00:44:38.684Z,4.87
2022-07-25T00:47:05.833Z,4.63
2022-07-25T00:49:32.875Z,4.97
2022-07-25T00:52:00.384Z,7.30
2022-07-25T00:54:27.326Z,6.50
2022-07-25T00:56:54.335Z,7.00
2022-07-25T00:59:21.232Z,4.77
2022-07-25T01:01:48.623Z,4.90
2022-07-25T01:04:16.898Z,4.47
2022-07-25T01:06:44.529Z,3.57
2022-07-25T01:09:11.633Z,8.07
2022-07-25T01:11:39.161Z,5.60
2022-07-25T01:14:07.174Z,5.50
2022-07-25T01:16:34.567Z,4.73
2022-07-25T01:19:01.693Z,4.83
2022-07-25T01:21:28.970Z,4.80
2022-07-25T01:23:55.926Z,4.83
2022-07-25T01:26:22.834Z,3.73
2022-07-25T01:28:49.823Z,3.80
2022-07-25T01:31:17.755Z,4.10
2022-07-25T01:33:44.806Z,4.20
2022-07-25T01:36:12.030Z,4.57
2022-07-25T01:38:38.932Z,4.10
2022-07-25T01:41:06.297Z,4.83
2022-07-25T01:43:33.509Z,4.27
2022-07-25T01:46:00.670Z,4.60
2022-07-25T01:48:27.768Z,4.80
2022-07-25T01:50:54.775Z,4.00
2022-07-25T01:53:21.937Z,4.27
2022-07-25T01:55:48.975Z,4.80
2022-07-25T01:58:15.935Z,4.40
2022-07-25T02:00:44.580Z,4.00
2022-07-25T02:03:29.868Z,5.57
2022-07-25T02:06:06.460Z,3.97
2022-07-25T02:08:33.783Z,4.37
2022-07-25T02:11:01.136Z,4.43
2022-07-25T02:13:28.351Z,4.20
2022-07-25T02:15:55.539Z,4.90
2022-07-25T02:18:22.520Z,4.67
2022-07-25T02:20:49.478Z,4.17
2022-07-25T02:23:16.380Z,4.70
2022-07-25T02:25:43.480Z,3.97
2022-07-25T02:28:10.658Z,4.77
2022-07-25T02:30:38.254Z,7.30
2022-07-25T02:33:05.465Z,4.90
2022-07-25T02:35:32.358Z,5.13
2022-07-25T02:37:59.312Z,5.80
2022-07-25T02:40:26.437Z,6.27
2022-07-25T02:42:53.385Z,5.87
2022-07-25T02:45:20.448Z,5.40
2022-07-25T02:47:47.402Z,5.70
2022-07-25T02:50:15.009Z,5.10
2022-07-25T02:52:42.977Z,5.03
2022-07-25T02:55:11.441Z,3.80
2022-07-25T02:57:38.433Z,4.07
2022-07-25T03:00:07.312Z,4.87
2022-07-25T03:02:35.970Z,5.17
2022-07-25T03:05:06.694Z,8.63
2022-07-25T03:07:33.730Z,5.60
2022-07-25T03:10:00.815Z,6.70
2022-07-25T03:12:27.777Z,6.90
2022-07-25T03:14:54.697Z,6.30
2022-07-25T03:17:21.591Z,7.10
2022-07-25T03:19:48.515Z,6.57
2022-07-25T03:22:15.422Z,6.60
2022-07-25T03:24:42.338Z,4.73
2022-07-25T03:27:09.656Z,5.00
2022-07-25T03:29:36.652Z,5.20
2022-07-25T03:32:04.363Z,4.97
2022-07-25T03:34:31.402Z,4.70
2022-07-25T03:36:58.339Z,4.87
2022-07-25T03:39:25.248Z,5.17
2022-07-25T03:41:52.980Z,5.90
2022-07-25T03:44:20.689Z,4.70
2022-07-25T03:46:47.707Z,6.43
2022-07-25T03:49:14.996Z,6.17
2022-07-25T03:51:42.520Z,5.73
2022-07-25T03:54:13.611Z,5.53
2022-07-25T03:56:43.849Z,3.93
2022-07-25T03:59:14.702Z,5.00
2022-07-25T04:01:43.303Z,5.80
2022-07-25T04:04:11.011Z,5.00
2022-07-25T04:06:39.736Z,5.70
2022-07-25T04:09:09.202Z,5.00
2022-07-25T04:11:38.187Z,8.30
2022-07-25T04:14:06.136Z,6.10
2022-07-25T04:16:33.389Z,6.27
2022-07-25T04:19:01.652Z,6.00
2022-07-25T04:21:28.753Z,4.80
2022-07-25T04:23:55.751Z,4.50
2022-07-25T04:26:22.633Z,5.13
2022-07-25T04:28:49.669Z,5.53
2022-07-25T04:31:16.952Z,4.60
2022-07-25T04:33:44.158Z,6.27
2022-07-25T04:36:11.092Z,5.60
2022-07-25T04:38:37.967Z,5.10
2022-07-25T04:41:05.359Z,5.80
2022-07-25T04:43:32.351Z,5.70
2022-07-25T04:45:59.740Z,6.27
2022-07-25T04:48:27.121Z,5.00
2022-07-25T04:50:54.272Z,4.73
2022-07-25T04:53:21.234Z,4.17
2022-07-25T04:55:48.447Z,4.97
2022-07-25T04:58:15.606Z,5.00
2022-07-25T05:00:42.749Z,5.70
2022-07-25T05:03:09.771Z,7.20
2022-07-25T05:05:36.906Z,6.77
2022-07-25T05:08:04.257Z,6.00
2022-07-25T05:10:31.324Z,6.23
2022-07-25T05:12:58.369Z,5.27
2022-07-25T05:15:25.445Z,7.27
2022-07-25T05:17:52.700Z,7.53
2022-07-25T05:20:19.710Z,7.27
2022-07-25T05:22:47.082Z,8.40
2022-07-25T05:25:14.131Z,8.90
2022-07-25T05:27:41.685Z,5.87
2022-07-25T05:30:11.972Z,7.10
2022-07-25T05:32:39.783Z,7.40
2022-07-25T05:35:09.062Z,7.83
2022-07-25T05:37:37.315Z,7.70
2022-07-25T05:40:07.405Z,8.67
2022-07-25T05:42:34.897Z,8.23
2022-07-25T05:45:02.176Z,8.47
2022-07-25T05:47:29.180Z,7.20
2022-07-25T05:49:56.268Z,8.83
2022-07-25T05:52:23.313Z,8.00
2022-07-25T05:54:50.592Z,6.93
2022-07-25T05:57:17.580Z,6.90
2022-07-25T05:59:44.649Z,7.53
2022-07-25T06:02:11.729Z,7.77
2022-07-25T06:04:38.740Z,8.20
2022-07-25T06:07:05.708Z,6.83
2022-07-25T06:09:33.072Z,7.53
2022-07-25T06:12:01.382Z,14.90
2022-07-25T06:14:29.787Z,9.33
2022-07-25T06:16:57.391Z,8.10
2022-07-25T06:19:24.540Z,6.60
2022-07-25T06:21:51.549Z,8.30
2022-07-25T06:24:18.625Z,6.67
2022-07-25T06:26:45.633Z,7.17
2022-07-25T06:29:12.657Z,7.87
2022-07-25T06:31:39.847Z,8.13
2022-07-25T06:34:07.453Z,8.20
2022-07-25T06:36:35.126Z,11.23
2022-07-25T06:39:02.649Z,7.60
2022-07-25T06:41:29.649Z,11.73
2022-07-25T06:43:56.547Z,7.20
2022-07-25T06:46:23.609Z,6.57
2022-07-25T06:48:50.827Z,7.57
2022-07-25T06:51:17.894Z,7.30
2022-07-25T06:53:44.859Z,7.10
2022-07-25T06:56:17.505Z,7.27
2022-07-25T06:58:45.638Z,6.70
2022-07-25T07:01:12.899Z,6.70
2022-07-25T07:03:40.732Z,7.00
2022-07-25T07:06:09.529Z,7.37
2022-07-25T07:08:36.558Z,6.50
2022-07-25T07:11:04.228Z,5.97
2022-07-25T07:13:31.308Z,6.67
2022-07-25T07:15:58.465Z,5.93
2022-07-25T07:18:25.932Z,9.93
2022-07-25T07:20:53.605Z,10.67
2022-07-25T07:23:20.700Z,23.67
2022-07-25T07:25:47.823Z,20.17
2022-07-25T07:28:15.780Z,13.47
2022-07-25T07:33:30.719Z,7.07
2022-07-25T07:35:57.831Z,8.37
2022-07-25T07:38:25.852Z,7.97
2022-07-25T07:40:53.758Z,7.53
2022-07-25T07:43:21.300Z,7.40
2022-07-25T07:45:49.303Z,8.10
2022-07-25T07:48:16.215Z,17.40
2022-07-25T07:50:43.169Z,35.53
2022-07-25T07:53:10.163Z,22.90
2022-07-25T07:55:48.181Z,20.13
2022-07-25T07:58:18.855Z,22.80
2022-07-25T08:00:49.398Z,14.10
2022-07-25T08:03:21.206Z,9.20
2022-07-25T08:05:49.261Z,8.97
2022-07-25T08:08:16.677Z,7.93
2022-07-25T08:10:48.753Z,7.97
2022-07-25T08:13:30.886Z,9.70
2022-07-25T08:16:00.908Z,8.80
2022-07-25T08:18:30.089Z,8.67
2022-07-25T08:20:57.888Z,8.37
2022-07-25T08:23:28.036Z,8.90
2022-07-25T08:25:55.253Z,9.10
2022-07-25T08:28:22.263Z,8.70
2022-07-25T08:30:49.321Z,8.17
2022-07-25T08:33:16.540Z,10.47
2022-07-25T08:35:54.951Z,9.17
2022-07-25T08:38:25.077Z,8.97
2022-07-25T08:40:54.517Z,8.93
2022-07-25T08:43:21.526Z,9.10
2022-07-25T08:45:52.397Z,8.80
2022-07-25T08:48:25.505Z,8.50
2022-07-25T08:50:54.478Z,7.80
2022-07-25T08:53:37.911Z,8.77
2022-07-25T08:56:16.025Z,10.40
2022-07-25T08:58:44.837Z,8.27
2022-07-25T09:01:13.384Z,8.00
2022-07-25T09:03:42.514Z,7.97
2022-07-25T09:06:21.616Z,8.27
2022-07-25T09:08:58.201Z,8.73
2022-07-25T09:11:38.176Z,7.83
2022-07-25T09:14:10.341Z,8.03
2022-07-25T09:16:44.463Z,7.97
2022-07-25T09:19:18.554Z,6.67
2022-07-25T09:22:02.877Z,6.63
2022-07-25T09:24:32.599Z,6.70
2022-07-25T09:27:08.566Z,7.03
2022-07-25T09:29:38.275Z,6.30
2022-07-25T09:32:20.903Z,6.33
2022-07-25T09:34:50.090Z,6.30
2022-07-25T09:37:24.397Z,7.57
2022-07-25T09:39:52.200Z,6.27
2022-07-25T09:42:36.388Z,5.97
2022-07-25T09:45:06.338Z,6.20
2022-07-25T09:47:36.827Z,6.07
2022-07-25T09:50:06.196Z,6.80
2022-07-25T09:52:36.114Z,6.20
2022-07-25T09:55:06.614Z,5.53
2022-07-25T09:57:33.849Z,5.93
2022-07-25T10:00:01.760Z,5.90
2022-07-25T10:03:06.617Z,5.73
2022-07-25T10:06:14.158Z,6.90
2022-07-25T10:08:41.940Z,6.40
2022-07-25T10:11:24.500Z,6.20
2022-07-25T10:13:53.236Z,6.37
2022-07-25T10:16:24.128Z,15.57
2022-07-25T10:18:56.824Z,7.80
2022-07-25T10:21:27.627Z,17.03
2022-07-25T10:24:08.849Z,9.43
2022-07-25T10:26:40.086Z,8.30
2022-07-25T10:29:12.795Z,6.63
2022-07-25T10:31:51.037Z,6.80
2022-07-25T10:34:30.960Z,6.70
2022-07-25T10:37:10.352Z,6.70
2022-07-25T10:39:44.753Z,6.47
2022-07-25T10:42:17.798Z,6.87
2022-07-25T10:44:48.791Z,7.50
2022-07-25T10:47:17.419Z,6.87
2022-07-25T10:50:15.116Z,6.23
2022-07-25T10:52:46.122Z,6.23
2022-07-25T10:55:23.879Z,6.23
2022-07-25T10:58:17.204Z,6.30
2022-07-25T11:00:45.193Z,6.40
2022-07-25T11:03:17.917Z,6.67
2022-07-25T11:05:49.569Z,6.83
2022-07-25T11:08:22.067Z,6.20
2022-07-25T11:10:53.504Z,6.17
2022-07-25T11:13:20.805Z,5.93
2022-07-25T11:15:48.217Z,6.10
2022-07-25T11:18:15.381Z,6.17
2022-07-25T11:20:42.444Z,6.53
2022-07-25T11:23:09.455Z,6.17
2022-07-25T11:25:36.630Z,5.70
2022-07-25T11:28:03.957Z,6.17
2022-07-25T11:30:31.157Z,5.97
2022-07-25T11:33:01.672Z,5.53
2022-07-25T11:35:33.461Z,5.57
2022-07-25T11:38:02.562Z,5.80
2022-07-25T11:40:31.457Z,5.77
2022-07-25T11:42:59.755Z,5.70
2022-07-25T11:45:29.672Z,33.53
2022-07-25T11:48:13.752Z,27.47
2022-07-25T11:50:44.136Z,7.70
2022-07-25T11:53:14.757Z,7.30
2022-07-25T11:55:43.240Z,7.80
2022-07-25T11:58:13.054Z,6.33
2022-07-25T12:00:44.358Z,5.43
2022-07-25T12:03:19.895Z,5.90
2022-07-25T12:05:49.345Z,5.33
2022-07-25T12:08:22.958Z,5.50
2022-07-25T12:10:51.675Z,5.33
2022-07-25T12:13:30.381Z,20.37
2022-07-25T12:16:00.443Z,18.90
2022-07-25T12:18:28.106Z,13.17
2022-07-25T12:20:55.308Z,7.23
2022-07-25T12:23:22.390Z,6.30
2022-07-25T12:25:50.151Z,6.10
2022-07-25T12:28:17.352Z,6.30
2022-07-25T12:30:46.633Z,6.20
2022-07-25T12:33:14.103Z,5.63
2022-07-25T12:35:42.609Z,5.30
2022-07-25T12:38:11.234Z,6.47
2022-07-25T12:40:38.464Z,6.00
2022-07-25T12:43:05.641Z,6.00
2022-07-25T12:45:32.703Z,5.90
2022-07-25T12:48:00.031Z,5.30
2022-07-25T12:50:27.078Z,6.23
2022-07-25T12:52:54.232Z,5.00
2022-07-25T12:55:21.785Z,6.17
2022-07-25T12:57:50.069Z,5.70
2022-07-25T13:00:21.497Z,5.30
2022-07-25T13:02:51.975Z,6.53
2022-07-25T13:05:20.317Z,6.20
2022-07-25T13:07:49.208Z,5.60
2022-07-25T13:10:17.916Z,5.90
2022-07-25T13:12:45.639Z,7.50
2022-07-25T13:15:12.620Z,7.10
2022-07-25T13:17:40.487Z,5.57
2022-07-25T13:20:09.300Z,6.40
2022-07-25T13:22:36.445Z,6.57
2022-07-25T13:25:04.290Z,5.93
2022-07-25T13:27:31.211Z,6.80
2022-07-25T13:29:58.310Z,6.83
2022-07-25T13:32:26.719Z,7.17
2022-07-25T13:34:53.874Z,6.00
2022-07-25T13:37:20.831Z,6.87
2022-07-25T13:39:47.884Z,6.60
2022-07-25T13:42:14.899Z,6.77
2022-07-25T13:44:41.878Z,6.20
2022-07-25T13:47:08.939Z,6.57
2022-07-25T13:49:37.036Z,5.90
2022-07-25T13:52:04.542Z,7.40
2022-07-25T13:54:31.805Z,6.50
2022-07-25T13:56:59.375Z,7.40
2022-07-25T13:59:26.287Z,6.70
2022-07-25T14:01:53.301Z,6.27
2022-07-25T14:04:20.435Z,6.40
2022-07-25T14:06:51.916Z,7.43
2022-07-25T14:09:21.063Z,6.80
2022-07-25T14:11:48.998Z,7.13
2022-07-25T14:14:16.217Z,6.60
2022-07-25T14:16:43.532Z,6.60
2022-07-25T14:19:10.855Z,6.37
2022-07-25T14:21:38.075Z,7.90
2022-07-25T14:24:05.421Z,6.90
2022-07-25T14:26:34.912Z,6.70
2022-07-25T14:29:02.371Z,6.83
2022-07-25T14:31:29.542Z,7.60
2022-07-25T14:33:56.523Z,6.97
2022-07-25T14:36:23.660Z,6.50
2022-07-25T14:38:50.659Z,6.87
2022-07-25T14:41:17.675Z,13.13
2022-07-25T14:43:44.755Z,15.40
2022-07-25T14:46:11.764Z,20.33
2022-07-25T14:48:39.629Z,8.07
2022-07-25T14:51:07.553Z,6.50
2022-07-25T14:53:36.140Z,7.10
2022-07-25T14:56:05.814Z,6.20
2022-07-25T14:58:34.065Z,6.50
2022-07-25T15:01:01.471Z,14.80
2022-07-25T15:03:28.555Z,7.43
2022-07-25T15:05:55.857Z,6.40
2022-07-25T15:08:23.307Z,6.43
2022-07-25T15:10:50.434Z,5.90
2022-07-25T15:13:33.199Z,6.30
2022-07-25T15:16:01.437Z,7.07
2022-07-25T15:18:29.365Z,6.37
2022-07-25T15:20:56.642Z,6.10
2022-07-25T15:23:25.078Z,5.83
2022-07-25T15:26:03.170Z,6.37
2022-07-25T15:28:36.887Z,6.63
2022-07-25T15:31:06.216Z,14.03
2022-07-25T15:33:33.872Z,5.87
2022-07-25T15:36:01.295Z,6.17
2022-07-25T15:38:31.845Z,6.60
2022-07-25T15:40:59.048Z,6.17
2022-07-25T15:43:26.327Z,6.30
2022-07-25T15:45:53.303Z,5.83
2022-07-25T15:48:20.493Z,5.43
2022-07-25T15:50:51.692Z,5.83
2022-07-25T15:53:18.962Z,6.10
2022-07-25T15:55:45.944Z,9.67
2022-07-25T15:58:13.184Z,10.30
2022-07-25T16:00:41.282Z,20.50
2022-07-25T16:03:09.166Z,6.07
2022-07-25T16:05:38.221Z,6.23
2022-07-25T16:08:08.165Z,5.83
2022-07-25T16:10:35.955Z,5.23
2022-07-25T16:13:03.453Z,5.20
2022-07-25T16:15:30.500Z,6.00
2022-07-25T16:18:02.355Z,5.83
2022-07-25T16:20:32.228Z,5.57
2022-07-25T16:23:00.393Z,5.43
2022-07-25T16:25:28.561Z,5.70
2022-07-25T16:27:56.674Z,5.60
2022-07-25T16:30:25.097Z,5.43
2022-07-25T16:32:52.218Z,5.50
2022-07-25T16:35:19.806Z,5.60
2022-07-25T16:37:46.904Z,5.40
2022-07-25T16:40:14.407Z,6.40
2022-07-25T16:42:41.600Z,6.53
2022-07-25T16:45:10.158Z,4.80
2022-07-25T16:47:39.522Z,5.30
2022-07-25T16:50:06.858Z,5.30
2022-07-25T16:52:33.751Z,6.27
2022-07-25T16:55:00.682Z,5.03
2022-07-25T16:57:27.661Z,5.30
2022-07-25T16:59:54.645Z,6.53
2022-07-25T17:02:27.527Z,5.93
2022-07-25T17:04:56.398Z,5.30
2022-07-25T17:07:23.854Z,5.90
2022-07-25T17:09:51.011Z,5.13
2022-07-25T17:12:18.913Z,5.20
2022-07-25T17:14:46.382Z,5.70
2022-07-25T17:17:13.751Z,5.83
2022-07-25T17:19:41.000Z,6.37
2022-07-25T17:22:11.725Z,6.37
2022-07-25T17:24:39.666Z,5.80
2022-07-25T17:27:08.255Z,6.20
2022-07-25T17:29:36.005Z,6.57
2022-07-25T17:32:05.886Z,6.60
2022-07-25T17:34:32.997Z,6.60
2022-07-25T17:37:02.848Z,7.33
2022-07-25T17:39:34.261Z,6.00
2022-07-25T17:42:01.729Z,6.80
2022-07-25T17:44:28.684Z,6.10
2022-07-25T17:46:56.153Z,6.47
2022-07-25T17:49:23.182Z,10.80
2022-07-25T17:51:50.227Z,8.43
2022-07-25T17:54:17.700Z,6.33
2022-07-25T17:56:45.517Z,10.17
2022-07-25T17:59:13.719Z,7.37
2022-07-25T18:01:41.030Z,7.57
2022-07-25T18:04:08.638Z,7.20
2022-07-25T18:06:36.025Z,8.03
2022-07-25T18:09:03.226Z,6.13
2022-07-25T18:11:30.277Z,6.43
2022-07-25T18:13:59.373Z,7.00
2022-07-25T18:16:26.684Z,6.03
2022-07-25T18:18:53.836Z,8.00
2022-07-25T18:21:20.832Z,6.30
2022-07-25T18:23:47.748Z,7.83
2022-07-25T18:26:14.891Z,5.77
2022-07-25T18:28:41.902Z,7.17
2022-07-25T18:31:09.979Z,6.37
2022-07-25T18:33:37.256Z,6.63
2022-07-25T18:36:07.639Z,6.70
2022-07-25T18:38:36.148Z,6.57
2022-07-25T18:41:27.406Z,6.80
2022-07-25T18:43:52.180Z,6.80
2022-07-25T18:46:20.076Z,6.57
2022-07-25T18:48:47.759Z,6.90
2022-07-25T18:51:15.038Z,7.03
2022-07-25T18:53:45.985Z,5.97
2022-07-25T18:56:15.056Z,7.37
2022-07-25T18:58:42.099Z,7.47
2022-07-25T19:01:09.692Z,7.47
2022-07-25T19:03:37.626Z,6.83
2022-07-25T19:06:05.273Z,7.03
2022-07-25T19:08:33.103Z,6.80
2022-07-25T19:11:00.371Z,6.60
2022-07-25T19:13:48.259Z,6.83
2022-07-25T19:16:14.477Z,6.47
2022-07-25T19:18:42.058Z,7.33
2022-07-25T19:21:09.004Z,7.07
2022-07-25T19:23:35.992Z,7.63
2022-07-25T19:26:04.031Z,7.47
2022-07-25T19:28:31.035Z,6.97
2022-07-25T19:30:58.165Z,7.80
2022-07-25T19:33:25.544Z,7.17
2022-07-25T19:36:01.885Z,7.53
2022-07-25T19:38:28.846Z,9.97
2022-07-25T19:40:55.793Z,7.17
2022-07-25T19:43:22.774Z,6.90
2022-07-25T19:45:49.854Z,7.53
2022-07-25T19:48:17.388Z,7.00
2022-07-25T19:50:45.654Z,6.63
2022-07-25T19:53:12.716Z,8.80
2022-07-25T19:55:39.661Z,6.93
2022-07-25T19:58:08.416Z,9.50
2022-07-25T20:00:35.478Z,7.63
2022-07-25T20:03:02.683Z,7.30
2022-07-25T20:05:29.726Z,7.23
2022-07-25T20:07:56.749Z,7.70
2022-07-25T20:10:24.293Z,7.80
2022-07-25T20:12:51.662Z,7.50
2022-07-25T20:15:18.721Z,8.53
2022-07-25T20:17:45.663Z,7.40
2022-07-25T20:20:12.709Z,7.20
2022-07-25T20:22:39.766Z,7.20
2022-07-25T20:25:10.772Z,8.17
2022-07-25T20:27:38.407Z,7.43
2022-07-25T20:30:08.655Z,7.90
2022-07-25T20:32:36.121Z,7.80
2022-07-25T20:35:03.791Z,7.93
2022-07-25T20:37:30.796Z,7.27
2022-07-25T20:39:58.971Z,7.90
2022-07-25T20:42:26.059Z,7.30
2022-07-25T20:44:53.083Z,7.10
2022-07-25T20:47:20.121Z,7.37
2022-07-25T20:49:47.071Z,7.70
2022-07-25T20:52:14.055Z,7.67
2022-07-25T20:54:42.894Z,7.47
2022-07-25T20:57:11.532Z,7.33
2022-07-25T20:59:38.587Z,7.23
2022-07-25T21:02:05.963Z,7.77
2022-07-25T21:04:33.032Z,7.50
2022-07-25T21:07:00.198Z,8.70
2022-07-25T21:09:30.949Z,7.20
2022-07-25T21:12:01.089Z,7.87
2022-07-25T21:14:28.496Z,7.53
2022-07-25T21:16:56.736Z,7.40
2022-07-25T21:19:24.425Z,7.87
2022-07-25T21:21:51.460Z,8.20
2022-07-25T21:24:18.521Z,7.27
2022-07-25T21:26:45.534Z,8.43
2022-07-25T21:29:12.868Z,8.50
2022-07-25T21:31:40.031Z,7.87
2022-07-25T21:34:07.077Z,7.40
2022-07-25T21:36:34.984Z,8.50
2022-07-25T21:39:02.096Z,7.33
2022-07-25T21:41:29.181Z,8.37
2022-07-25T21:43:57.292Z,8.37
2022-07-25T21:46:24.299Z,7.50
2022-07-25T21:49:10.479Z,8.30
2022-07-25T21:51:40.389Z,8.27
2022-07-25T21:54:08.408Z,8.83
2022-07-25T21:56:35.458Z,7.73
2022-07-25T21:59:02.409Z,7.60
2022-07-25T22:01:29.798Z,7.13
2022-07-25T22:03:56.980Z,7.97
2022-07-25T22:06:23.998Z,7.57
2022-07-25T22:08:51.047Z,12.27
2022-07-25T22:11:38.873Z,8.43
2022-07-25T22:14:05.234Z,10.50
2022-07-25T22:16:32.235Z,11.30
2022-07-25T22:18:59.723Z,8.80
2022-07-25T22:21:26.977Z,9.03
2022-07-25T22:23:53.886Z,8.20
2022-07-25T22:26:21.509Z,7.80
2022-07-25T22:28:48.959Z,7.27
2022-07-25T22:31:17.817Z,7.90
2022-07-25T22:33:44.927Z,7.60
2022-07-25T22:36:11.997Z,7.53
2022-07-25T22:38:38.969Z,7.53
2022-07-25T22:41:06.286Z,8.27
2022-07-25T22:43:57.223Z,7.50
2022-07-25T22:46:20.233Z,7.10
2022-07-25T22:48:47.230Z,8.37
2022-07-25T22:51:14.207Z,7.40
2022-07-25T22:53:41.181Z,7.80
2022-07-25T22:56:08.233Z,6.47
2022-07-25T22:58:35.198Z,7.77
2022-07-25T23:01:02.203Z,9.13
2022-07-25T23:03:30.591Z,8.20
2022-07-25T23:05:59.248Z,7.20
2022-07-25T23:08:26.137Z,7.90
2022-07-25T23:10:53.239Z,8.40
2022-07-25T23:13:20.288Z,8.00
2022-07-25T23:15:49.776Z,7.37
2022-07-25T23:18:19.086Z,7.97
2022-07-25T23:20:46.299Z,7.47
2022-07-25T23:23:13.679Z,8.50
2022-07-25T23:25:40.889Z,7.73
2022-07-25T23:28:07.856Z,8.83
2022-07-25T23:30:40.039Z,8.20
2022-07-25T23:33:08.332Z,7.87
2022-07-25T23:35:35.901Z,8.57
2022-07-25T23:38:03.750Z,7.63
2022-07-25T23:40:31.084Z,8.37
2022-07-25T23:42:58.117Z,8.10
2022-07-25T23:45:27.812Z,7.40
2022-07-25T23:47:56.513Z,7.10
2022-07-25T23:50:24.324Z,6.97
2022-07-25T23:52:51.656Z,7.17
2022-07-25T23:55:18.678Z,7.30
2022-07-25T23:57:45.672Z,8.23
